x

Santa Maria - 21nm Nw Of Point Arguello, Ca (46011) Wave Buoy

12:50pm - Sun 19th Aug 2018 All times are PDT. -7 hours from GMT.

  • Sig Wave height 4.6ft
  • Swell Direction
  • Peak Period 15s
  • Average Period 6s
  • Wind
    16mph, 20mph gusts
  • Sea Temp 63°f
  • Air Temp 59°f
  • Sea Pressure 1015.1mb
  • Santa Maria - 21nm Nw Of Point Arguello, Ca
  • Santa Maria - 21nm Nw Of Point Arguello, Ca

More Historic Weather Station data

Upgrade to MSW Pro to gain access to the past 30 days of data for over 8000 Wavebouys and Weather Stations around the globe.

Join

Comparision Forecast

View Surf forecast
   
Sun 08/19 12:50pm 4.5ft 15s 6s 16 20 mph 1015.1mb 63f 59f
11:50am 4.5ft 14s 5s 13 18 mph 1015.8mb 63f 59f
10:50am 4ft 15s 6s 16 18 mph 1016.2mb 63f 59f
9:50am 4ft 15s 6s 13 18 mph 1015.9mb 63f 58f
8:50am 3.5ft 15s 5s 16 18 mph 1015.4mb 63f 59f
7:50am 4ft 15s 6s 16 20 mph 1015.3mb 63f 58f
6:50am 4ft 15s 6s 13 20 mph 1015.2mb 63f 58f
5:50am 4ft 14s 6s 16 20 mph 1014.6mb 63f 58f
3:50am 4ft 15s 7s 13 18 mph 1014.5mb 63f 58f
2:50am 4ft 15s 7s 13 16 mph 1015.2mb 63f 59f
1:50am 4ft 15s 7s 13 16 mph 1015.5mb 63f 59f
12:50am 4ft 15s 7s 13 16 mph 1016mb 63f 59f
Sat 08/18 11:50pm 4.5ft 15s  -  13 16 mph 1016.1mb 63f 59f
10:50pm 4.5ft 15s 6s 11 13 mph 1016.4mb 63f 60f
9:50pm 4.5ft 15s 7s 13 18 mph 1016.3mb 63f 59f
8:50pm 4.5ft 15s 6s 16 18 mph 1015.9mb 63f 59f
7:50pm 4.5ft 15s 7s 13 18 mph 1015.6mb 63f 59f
6:50pm 4.5ft 15s 7s 16 18 mph 1015.7mb 64f 60f
4:50pm 4.5ft 15s 7s 13 18 mph 1016.3mb 64f 60f
3:50pm 4.5ft 16s 8s 13 16 mph 1017mb 64f 60f
2:50pm 4.5ft 16s 8s 9 13 mph 1018.2mb 64f 60f
1:50pm 4.5ft 14s 8s 9 11 mph 1018.6mb 64f 60f
12:50pm 4.5ft 16s 8s 7 9 mph 1019.3mb 64f 60f
11:50am 4.5ft 15s 8s 7 9 mph 1019.4mb 64f 60f
10:50am 4.5ft 15s 8s 7 9 mph 1019.3mb 64f 59f
9:50am 4.5ft 15s 8s 7 9 mph 1019mb 64f 59f
8:50am 4.5ft 16s 8s 7 9 mph 1018.7mb 63f 59f
7:50am 5.5ft 16s 9s 7 9 mph 1018.5mb 63f 59f
6:50am 4.5ft 16s 7s 9 13 mph 1017.8mb 64f 58f
5:50am 5ft 15s 8s 9 13 mph 1017.4mb 64f 59f
4:50am 4.5ft 15s 8s 11 13 mph 1016.9mb 64f 59f
3:50am 5ft 16s 8s 11 16 mph 1017.3mb 64f 59f
2:50am 5ft 16s 8s 13 16 mph 1017.3mb 64f 59f
1:50am 5ft 16s 8s 11 16 mph 1017.8mb 64f 59f
12:50am 5ft 16s 8s 11 13 mph 1018.1mb 64f 60f
Fri 08/17 11:50pm 5ft 17s 8s 11 13 mph 1017.9mb 64f 61f
10:50pm 6ft 16s 8s 11 13 mph 1017.9mb 64f 61f
8:50pm 5.5ft 16s 7s 13 16 mph 1017.5mb 63f 60f
7:50pm 5ft 16s 7s 13 18 mph 1017.1mb 64f 60f
6:50pm 5ft 16s 7s 13 18 mph 1017mb 64f 60f
5:50pm 5.5ft 16s 8s 13 18 mph 1017.4mb 63f 60f
4:50pm 6ft 16s 8s 16 18 mph 1017.5mb 63f 60f
3:50pm 5ft 16s 7s 13 18 mph 1017.9mb 63f 60f
2:50pm 6ft 16s 8s 13 18 mph 1018.2mb 64f 60f
1:50pm 6ft 17s 7s 13 16 mph 1018.5mb 64f 60f
12:50pm 6ft 17s 8s 11 13 mph 1018.9mb 64f 59f
11:50am 6ft 17s 8s 11 13 mph 1019.1mb 64f 59f
10:50am 6ft 17s 8s 11 13 mph 1018.9mb 63f 59f
9:50am 5ft 16s 7s 13 16 mph 1018.7mb 64f 59f
8:50am 6ft 17s 8s 13 16 mph 1018.6mb 63f 60f
7:50am 5ft 17s 7s 13 16 mph 1018.3mb 64f 60f
6:50am 5ft 17s 7s 16 18 mph 1017.5mb 64f 61f
5:50am 5ft 17s 7s 16 18 mph 1017.3mb 64f 61f
4:50am 5ft 17s 6s 16 18 mph 1017.1mb 64f 61f
3:50am 5ft 17s 6s 16 18 mph 1017.2mb 64f 61f
1:50am 6ft 17s 7s 18 22 mph 1017.5mb 64f 62f
12:50am 5ft 19s 6s 18 22 mph 1017.5mb 64f 62f
Thu 08/16 11:50pm 5ft 19s 6s 18 22 mph 1017.7mb 64f 62f
10:50pm 4.5ft 19s 6s 20 22 mph 1017.4mb 64f 62f
9:50pm 5ft 19s 6s 18 20 mph 1017.4mb 64f 62f
8:50pm 4.5ft 19s 6s 18 22 mph 1016.7mb 64f 62f
6:50pm 5ft 19s 6s 20 22 mph 1016.2mb 65f 62f
5:50pm 4.5ft 19s 5s 20 25 mph 1016.1mb 65f 62f
4:50pm 4ft 13s 6s 20 22 mph 1016.3mb 65f 62f
3:50pm 3.5ft 19s 6s 18 20 mph 1016.6mb 65f 61f
2:50pm 3.5ft 19s 6s 7 9 mph 1017mb 65f 60f
1:50pm 4ft 19s 6s 11 13 mph 1017mb 65f 60f
12:50pm 4.5ft 19s 6s 13 16 mph 1017.6mb 65f 60f
11:50am 4.5ft 19s 7s 9 13 mph 1018mb 65f 59f
10:50am 4ft 14s 6s 11 13 mph 1017.7mb 65f 59f
9:50am 3.5ft 17s 6s 7 11 mph 1017.6mb 65f 59f
8:50am 3.5ft 14s 6s 13 16 mph 1017.3mb 65f 59f
7:50am 3.5ft 14s 6s 13 18 mph 1017.1mb 65f 59f
6:50am 3.5ft 14s 5s 9 11 mph 1016.3mb 65f 59f
5:50am 4ft 14s 5s 13 18 mph 1015.3mb 65f 59f
4:50am 4ft 14s 6s 18 22 mph 1015mb 65f 60f
3:50am 4ft 14s 6s 16 20 mph 1014.8mb 65f 60f
2:50am 4ft 5s 5s 16 18 mph 1014.7mb 64f 60f
1:50am 4ft 14s 5s 16 20 mph 1014.8mb 64f 61f
12:50am 3.5ft 14s 5s 18 20 mph 1014.7mb 63f 61f
Wed 08/15 11:50pm 4ft 14s 5s 18 20 mph 1014.3mb 63f 61f
10:50pm 4ft 14s 5s 18 22 mph 1014.1mb 63f 61f
9:50pm 3.5ft 13s 5s 18 20 mph 1013.8mb 64f 61f